KCEY/CEY METAR and TAF weather

Enter ICAO airport designator
Station Type Date Time Source
KCEY METAR 2020/03/31 22:55 UTC NOAA

KCEY 312255Z AUTO 31010KT 10SM SCT055 14/02 A2991 RMK AO1


Station Type Date Time Source
KCEY Decoded METAR 2020/03/31 22:55 UTC NOAA

Station name not available
Mar 31, 2020 - 06:55 PM EDT / 2020.03.31 2255 UTC
Wind: from the NW (310 degrees) at 12 MPH (10 KT):0
Visibility: 10 mile(s):0
Sky conditions: partly cloudy
Temperature: 57 F (14 C)
Dew Point: 35 F (2 C)
Relative Humidity: 44%
Pressure (altimeter): 29.91 in. Hg (1012 hPa)
ob: KCEY 312255Z AUTO 31010KT 10SM SCT055 14/02 A2991 RMK AO1
cycle: 23

Station Type Date Time Source
KCEY TAF UTC NOAA

Error!

Example: see airport list